sensor_id;sensor_type;location;lat;lon;timestamp;temperature;humidity
20345;DHT22;10330;48.816;9.278;2022-10-16T00:00:10;17.20;99.90
20345;DHT22;10330;48.816;9.278;2022-10-16T00:02:40;17.20;99.90
20345;DHT22;10330;48.816;9.278;2022-10-16T00:05:06;17.30;99.90
20345;DHT22;10330;48.816;9.278;2022-10-16T00:07:32;17.30;99.90
20345;DHT22;10330;48.816;9.278;2022-10-16T00:09:59;17.30;99.90
20345;DHT22;10330;48.816;9.278;2022-10-16T00:12:25;17.20;99.90
20345;DHT22;10330;48.816;9.278;2022-10-16T00:14:54;17.30;99.90
20345;DHT22;10330;48.816;9.278;2022-10-16T00:17:21;17.30;99.90
20345;DHT22;10330;48.816;9.278;2022-10-16T00:19:47;17.20;99.90
20345;DHT22;10330;48.816;9.278;2022-10-16T00:22:14;17.20;99.90
20345;DHT22;10330;48.816;9.278;2022-10-16T00:24:40;17.20;99.90
20345;DHT22;10330;48.816;9.278;2022-10-16T00:27:06;17.20;99.90
20345;DHT22;10330;48.816;9.278;2022-10-16T00:29:33;17.10;99.90
20345;DHT22;10330;48.816;9.278;2022-10-16T00:31:59;17.10;99.90
20345;DHT22;10330;48.816;9.278;2022-10-16T00:34:25;17.00;99.90
20345;DHT22;10330;48.816;9.278;2022-10-16T00:37:01;17.00;99.90
20345;DHT22;10330;48.816;9.278;2022-10-16T00:39:28;17.00;99.90
20345;DHT22;10330;48.816;9.278;2022-10-16T00:41:55;17.00;99.90
20345;DHT22;10330;48.816;9.278;2022-10-16T00:44:50;16.90;99.90
20345;DHT22;10330;48.816;9.278;2022-10-16T00:47:19;16.90;99.90
20345;DHT22;10330;48.816;9.278;2022-10-16T00:49:49;16.90;99.90
20345;DHT22;10330;48.816;9.278;2022-10-16T00:52:16;17.00;99.90
20345;DHT22;10330;48.816;9.278;2022-10-16T00:54:43;17.00;99.90
20345;DHT22;10330;48.816;9.278;2022-10-16T00:57:11;17.00;99.90
20345;DHT22;10330;48.816;9.278;2022-10-16T00:59:39;16.80;99.90
20345;DHT22;10330;48.816;9.278;2022-10-16T01:02:09;16.90;99.90
20345;DHT22;10330;48.816;9.278;2022-10-16T01:04:42;16.90;99.90
20345;DHT22;10330;48.816;9.278;2022-10-16T01:11:12;17.00;99.90
20345;DHT22;10330;48.816;9.278;2022-10-16T01:13:21;17.00;99.90
20345;DHT22;10330;48.816;9.278;2022-10-16T01:16:00;17.00;99.90
20345;DHT22;10330;48.816;9.278;2022-10-16T01:18:43;17.00;99.90
20345;DHT22;10330;48.816;9.278;2022-10-16T01:24:23;16.90;99.90
20345;DHT22;10330;48.816;9.278;2022-10-16T01:40:19;17.00;99.90
20345;DHT22;10330;48.816;9.278;2022-10-16T01:42:59;17.00;99.90
20345;DHT22;10330;48.816;9.278;2022-10-16T01:45:28;17.00;99.90
20345;DHT22;10330;48.816;9.278;2022-10-16T01:47:57;17.00;99.90
20345;DHT22;10330;48.816;9.278;2022-10-16T01:50:24;17.00;99.90
20345;DHT22;10330;48.816;9.278;2022-10-16T01:52:52;17.00;99.90
20345;DHT22;10330;48.816;9.278;2022-10-16T01:55:28;17.00;99.90
20345;DHT22;10330;48.816;9.278;2022-10-16T01:57:56;17.00;99.90
20345;DHT22;10330;48.816;9.278;2022-10-16T02:00:24;17.00;99.90
20345;DHT22;10330;48.816;9.278;2022-10-16T02:02:53;17.00;99.90
20345;DHT22;10330;48.816;9.278;2022-10-16T02:05:38;16.90;99.90
20345;DHT22;10330;48.816;9.278;2022-10-16T02:08:06;16.70;99.90
20345;DHT22;10330;48.816;9.278;2022-10-16T02:10:35;16.70;99.90
20345;DHT22;10330;48.816;9.278;2022-10-16T02:13:17;16.60;99.90
20345;DHT22;10330;48.816;9.278;2022-10-16T02:15:45;16.60;99.90
20345;DHT22;10330;48.816;9.278;2022-10-16T02:18:11;16.50;99.90
20345;DHT22;10330;48.816;9.278;2022-10-16T02:20:53;16.50;99.90
20345;DHT22;10330;48.816;9.278;2022-10-16T02:23:45;16.40;99.90
20345;DHT22;10330;48.816;9.278;2022-10-16T02:26:17;16.40;99.90
20345;DHT22;10330;48.816;9.278;2022-10-16T02:28:48;16.40;99.90
20345;DHT22;10330;48.816;9.278;2022-10-16T02:31:23;16.30;99.90
20345;DHT22;10330;48.816;9.278;2022-10-16T02:33:53;16.30;99.90
20345;DHT22;10330;48.816;9.278;2022-10-16T02:36:21;16.30;99.90
20345;DHT22;10330;48.816;9.278;2022-10-16T02:38:48;16.20;99.90
20345;DHT22;10330;48.816;9.278;2022-10-16T02:41:14;16.20;99.90
20345;DHT22;10330;48.816;9.278;2022-10-16T02:43:41;16.20;99.90
20345;DHT22;10330;48.816;9.278;2022-10-16T02:46:20;16.20;99.90
20345;DHT22;10330;48.816;9.278;2022-10-16T02:48:50;16.10;99.90
20345;DHT22;10330;48.816;9.278;2022-10-16T02:51:16;16.10;99.90
20345;DHT22;10330;48.816;9.278;2022-10-16T02:53:45;16.10;99.90
20345;DHT22;10330;48.816;9.278;2022-10-16T02:56:12;16.00;99.90
20345;DHT22;10330;48.816;9.278;2022-10-16T02:58:38;16.10;99.90
20345;DHT22;10330;48.816;9.278;2022-10-16T03:01:04;16.10;99.90
20345;DHT22;10330;48.816;9.278;2022-10-16T03:03:31;16.10;99.90
20345;DHT22;10330;48.816;9.278;2022-10-16T03:05:57;16.00;99.90
20345;DHT22;10330;48.816;9.278;2022-10-16T03:08:24;16.00;99.90
20345;DHT22;10330;48.816;9.278;2022-10-16T03:10:51;15.90;99.90
20345;DHT22;10330;48.816;9.278;2022-10-16T03:13:18;15.90;99.90
20345;DHT22;10330;48.816;9.278;2022-10-16T03:15:46;15.90;99.90
20345;DHT22;10330;48.816;9.278;2022-10-16T03:18:13;15.90;99.90
20345;DHT22;10330;48.816;9.278;2022-10-16T03:20:39;15.90;99.90
20345;DHT22;10330;48.816;9.278;2022-10-16T03:23:06;15.90;99.90
20345;DHT22;10330;48.816;9.278;2022-10-16T03:25:34;15.90;99.90
20345;DHT22;10330;48.816;9.278;2022-10-16T03:28:00;15.80;99.90
20345;DHT22;10330;48.816;9.278;2022-10-16T03:30:27;15.90;99.90
20345;DHT22;10330;48.816;9.278;2022-10-16T03:32:53;15.80;99.90
20345;DHT22;10330;48.816;9.278;2022-10-16T03:35:21;15.80;99.90
20345;DHT22;10330;48.816;9.278;2022-10-16T03:37:47;15.80;99.90
20345;DHT22;10330;48.816;9.278;2022-10-16T03:40:14;15.70;99.90
20345;DHT22;10330;48.816;9.278;2022-10-16T03:42:40;15.70;99.90
20345;DHT22;10330;48.816;9.278;2022-10-16T03:45:08;15.70;99.90
20345;DHT22;10330;48.816;9.278;2022-10-16T03:47:34;15.70;99.90
20345;DHT22;10330;48.816;9.278;2022-10-16T03:50:00;15.70;99.90
20345;DHT22;10330;48.816;9.278;2022-10-16T03:52:27;15.70;99.90
20345;DHT22;10330;48.816;9.278;2022-10-16T03:54:53;15.70;99.90
20345;DHT22;10330;48.816;9.278;2022-10-16T03:57:20;15.70;99.90
20345;DHT22;10330;48.816;9.278;2022-10-16T03:59:46;15.60;99.90
20345;DHT22;10330;48.816;9.278;2022-10-16T04:02:13;15.70;99.90
20345;DHT22;10330;48.816;9.278;2022-10-16T04:04:39;15.60;99.90
20345;DHT22;10330;48.816;9.278;2022-10-16T04:07:05;15.70;99.90
20345;DHT22;10330;48.816;9.278;2022-10-16T04:09:32;15.60;99.90
20345;DHT22;10330;48.816;9.278;2022-10-16T04:11:58;15.60;99.90
20345;DHT22;10330;48.816;9.278;2022-10-16T04:14:24;15.50;99.90
20345;DHT22;10330;48.816;9.278;2022-10-16T04:16:50;15.50;99.90
20345;DHT22;10330;48.816;9.278;2022-10-16T04:19:17;15.50;99.90
20345;DHT22;10330;48.816;9.278;2022-10-16T04:21:43;15.50;99.90
20345;DHT22;10330;48.816;9.278;2022-10-16T04:24:10;15.50;99.90
20345;DHT22;10330;48.816;9.278;2022-10-16T04:26:37;15.50;99.90
20345;DHT22;10330;48.816;9.278;2022-10-16T04:29:04;15.40;99.90
20345;DHT22;10330;48.816;9.278;2022-10-16T04:31:30;15.40;99.90
20345;DHT22;10330;48.816;9.278;2022-10-16T04:33:56;15.40;99.90
20345;DHT22;10330;48.816;9.278;2022-10-16T04:36:22;15.30;99.90
20345;DHT22;10330;48.816;9.278;2022-10-16T04:38:49;15.30;99.90
20345;DHT22;10330;48.816;9.278;2022-10-16T04:41:36;15.30;99.90
20345;DHT22;10330;48.816;9.278;2022-10-16T04:44:05;15.30;99.90
20345;DHT22;10330;48.816;9.278;2022-10-16T04:46:32;15.30;99.90
20345;DHT22;10330;48.816;9.278;2022-10-16T04:48:58;15.30;99.90
20345;DHT22;10330;48.816;9.278;2022-10-16T04:51:25;15.20;99.90
20345;DHT22;10330;48.816;9.278;2022-10-16T04:53:52;15.20;99.90
20345;DHT22;10330;48.816;9.278;2022-10-16T04:56:21;15.20;99.90
20345;DHT22;10330;48.816;9.278;2022-10-16T04:58:50;15.30;99.90
20345;DHT22;10330;48.816;9.278;2022-10-16T05:01:16;15.20;99.90
20345;DHT22;10330;48.816;9.278;2022-10-16T05:03:46;15.20;99.90
20345;DHT22;10330;48.816;9.278;2022-10-16T05:06:12;15.30;99.90
20345;DHT22;10330;48.816;9.278;2022-10-16T05:08:42;15.10;99.90
20345;DHT22;10330;48.816;9.278;2022-10-16T05:11:08;15.20;99.90
20345;DHT22;10330;48.816;9.278;2022-10-16T05:13:34;15.20;99.90
20345;DHT22;10330;48.816;9.278;2022-10-16T05:16:01;15.20;99.90
20345;DHT22;10330;48.816;9.278;2022-10-16T05:18:27;15.20;99.90
20345;DHT22;10330;48.816;9.278;2022-10-16T05:20:54;15.20;99.90
20345;DHT22;10330;48.816;9.278;2022-10-16T05:23:23;15.20;99.90
20345;DHT22;10330;48.816;9.278;2022-10-16T05:25:55;15.20;99.90
20345;DHT22;10330;48.816;9.278;2022-10-16T05:28:28;15.10;99.90
20345;DHT22;10330;48.816;9.278;2022-10-16T05:30:56;15.20;99.90
20345;DHT22;10330;48.816;9.278;2022-10-16T05:33:24;15.10;99.90
20345;DHT22;10330;48.816;9.278;2022-10-16T05:35:51;15.10;99.90
20345;DHT22;10330;48.816;9.278;2022-10-16T05:38:18;15.10;99.90
20345;DHT22;10330;48.816;9.278;2022-10-16T05:40:55;15.00;99.90
20345;DHT22;10330;48.816;9.278;2022-10-16T05:43:28;15.00;99.90
20345;DHT22;10330;48.816;9.278;2022-10-16T05:46:04;15.00;99.90
20345;DHT22;10330;48.816;9.278;2022-10-16T05:48:42;15.00;99.90
20345;DHT22;10330;48.816;9.278;2022-10-16T05:51:13;15.00;99.90
20345;DHT22;10330;48.816;9.278;2022-10-16T05:53:46;14.90;99.90
20345;DHT22;10330;48.816;9.278;2022-10-16T05:56:17;14.90;99.90
20345;DHT22;10330;48.816;9.278;2022-10-16T05:58:46;14.90;99.90
20345;DHT22;10330;48.816;9.278;2022-10-16T06:01:18;15.00;99.90
20345;DHT22;10330;48.816;9.278;2022-10-16T06:03:44;14.90;99.90
20345;DHT22;10330;48.816;9.278;2022-10-16T06:06:13;14.90;99.90
20345;DHT22;10330;48.816;9.278;2022-10-16T06:08:50;15.00;99.90
20345;DHT22;10330;48.816;9.278;2022-10-16T06:11:27;15.00;99.90
20345;DHT22;10330;48.816;9.278;2022-10-16T06:13:56;15.00;99.90
20345;DHT22;10330;48.816;9.278;2022-10-16T06:16:26;15.00;99.90
20345;DHT22;10330;48.816;9.278;2022-10-16T06:18:59;15.00;99.90
20345;DHT22;10330;48.816;9.278;2022-10-16T06:21:26;15.10;99.90
20345;DHT22;10330;48.816;9.278;2022-10-16T06:23:55;15.10;99.90
20345;DHT22;10330;48.816;9.278;2022-10-16T06:26:24;15.10;99.90
20345;DHT22;10330;48.816;9.278;2022-10-16T06:28:50;15.00;99.90
20345;DHT22;10330;48.816;9.278;2022-10-16T06:31:20;15.10;99.90
20345;DHT22;10330;48.816;9.278;2022-10-16T06:33:50;15.10;99.90
20345;DHT22;10330;48.816;9.278;2022-10-16T06:36:23;15.10;99.90
20345;DHT22;10330;48.816;9.278;2022-10-16T06:38:53;15.00;99.90
20345;DHT22;10330;48.816;9.278;2022-10-16T06:41:25;15.00;99.90
20345;DHT22;10330;48.816;9.278;2022-10-16T06:43:56;15.00;99.90
20345;DHT22;10330;48.816;9.278;2022-10-16T06:46:42;15.20;99.90
20345;DHT22;10330;48.816;9.278;2022-10-16T06:49:09;15.10;99.90
20345;DHT22;10330;48.816;9.278;2022-10-16T06:51:44;15.20;99.90
20345;DHT22;10330;48.816;9.278;2022-10-16T06:54:15;15.30;99.90
20345;DHT22;10330;48.816;9.278;2022-10-16T06:56:52;15.30;99.90
20345;DHT22;10330;48.816;9.278;2022-10-16T06:59:21;15.30;99.90
20345;DHT22;10330;48.816;9.278;2022-10-16T07:01:48;15.40;99.90
20345;DHT22;10330;48.816;9.278;2022-10-16T07:04:17;15.40;99.90
20345;DHT22;10330;48.816;9.278;2022-10-16T07:06:43;15.40;99.90
20345;DHT22;10330;48.816;9.278;2022-10-16T07:09:10;15.50;99.90
20345;DHT22;10330;48.816;9.278;2022-10-16T07:11:38;15.60;99.90
20345;DHT22;10330;48.816;9.278;2022-10-16T07:14:10;15.60;99.90
20345;DHT22;10330;48.816;9.278;2022-10-16T07:16:38;15.70;99.90
20345;DHT22;10330;48.816;9.278;2022-10-16T07:19:04;15.80;99.90
20345;DHT22;10330;48.816;9.278;2022-10-16T07:21:33;15.80;99.90
20345;DHT22;10330;48.816;9.278;2022-10-16T07:24:15;15.90;99.90
20345;DHT22;10330;48.816;9.278;2022-10-16T07:38:18;16.00;99.90
20345;DHT22;10330;48.816;9.278;2022-10-16T07:44:53;16.00;99.90
20345;DHT22;10330;48.816;9.278;2022-10-16T07:54:23;16.00;99.90
20345;DHT22;10330;48.816;9.278;2022-10-16T07:57:20;16.00;99.90
20345;DHT22;10330;48.816;9.278;2022-10-16T08:08:18;16.30;99.90
20345;DHT22;10330;48.816;9.278;2022-10-16T08:10:54;16.40;99.90
20345;DHT22;10330;48.816;9.278;2022-10-16T08:22:11;16.70;99.90
20345;DHT22;10330;48.816;9.278;2022-10-16T08:25:12;16.90;99.90
20345;DHT22;10330;48.816;9.278;2022-10-16T08:27:41;17.00;99.90
20345;DHT22;10330;48.816;9.278;2022-10-16T08:30:23;17.00;99.90
20345;DHT22;10330;48.816;9.278;2022-10-16T08:39:28;17.60;99.90
20345;DHT22;10330;48.816;9.278;2022-10-16T08:42:06;17.80;99.90
20345;DHT22;10330;48.816;9.278;2022-10-16T08:50:51;18.20;99.90
20345;DHT22;10330;48.816;9.278;2022-10-16T08:53:28;18.30;99.90
20345;DHT22;10330;48.816;9.278;2022-10-16T08:55:56;18.40;99.90
20345;DHT22;10330;48.816;9.278;2022-10-16T09:23:37;19.00;99.90
20345;DHT22;10330;48.816;9.278;2022-10-16T09:26:12;19.00;99.90
20345;DHT22;10330;48.816;9.278;2022-10-16T09:28:39;19.10;99.90
20345;DHT22;10330;48.816;9.278;2022-10-16T09:31:15;19.20;99.90
20345;DHT22;10330;48.816;9.278;2022-10-16T09:58:59;19.40;99.90
20345;DHT22;10330;48.816;9.278;2022-10-16T10:01:47;19.50;99.90
20345;DHT22;10330;48.816;9.278;2022-10-16T10:04:57;19.70;99.90
20345;DHT22;10330;48.816;9.278;2022-10-16T10:07:44;19.90;99.90
20345;DHT22;10330;48.816;9.278;2022-10-16T10:10:41;20.00;99.90
20345;DHT22;10330;48.816;9.278;2022-10-16T10:13:22;20.20;99.90
20345;DHT22;10330;48.816;9.278;2022-10-16T10:16:32;20.20;99.90
20345;DHT22;10330;48.816;9.278;2022-10-16T10:32:42;20.70;99.90
20345;DHT22;10330;48.816;9.278;2022-10-16T10:35:44;21.00;99.90
20345;DHT22;10330;48.816;9.278;2022-10-16T10:38:51;21.10;99.90
20345;DHT22;10330;48.816;9.278;2022-10-16T10:49:51;22.00;99.90
20345;DHT22;10330;48.816;9.278;2022-10-16T10:55:40;22.70;99.90
20345;DHT22;10330;48.816;9.278;2022-10-16T10:58:20;23.00;99.90
20345;DHT22;10330;48.816;9.278;2022-10-16T11:01:04;23.20;99.90
20345;DHT22;10330;48.816;9.278;2022-10-16T11:12:44;24.10;99.90
20345;DHT22;10330;48.816;9.278;2022-10-16T11:15:47;24.40;99.90
20345;DHT22;10330;48.816;9.278;2022-10-16T11:18:22;24.60;99.90
20345;DHT22;10330;48.816;9.278;2022-10-16T11:21:05;25.00;99.90
20345;DHT22;10330;48.816;9.278;2022-10-16T11:23:46;24.80;99.90
20345;DHT22;10330;48.816;9.278;2022-10-16T11:30:24;25.10;99.90
20345;DHT22;10330;48.816;9.278;2022-10-16T11:37:17;26.70;99.90
20345;DHT22;10330;48.816;9.278;2022-10-16T11:40:39;27.10;99.90
20345;DHT22;10330;48.816;9.278;2022-10-16T11:49:14;28.20;99.90
20345;DHT22;10330;48.816;9.278;2022-10-16T11:51:59;28.70;99.90
20345;DHT22;10330;48.816;9.278;2022-10-16T12:01:15;30.00;99.90
20345;DHT22;10330;48.816;9.278;2022-10-16T12:07:09;29.50;99.90
20345;DHT22;10330;48.816;9.278;2022-10-16T12:09:39;29.00;99.90
20345;DHT22;10330;48.816;9.278;2022-10-16T12:12:27;29.70;99.90
20345;DHT22;10330;48.816;9.278;2022-10-16T12:18:24;30.70;99.90
20345;DHT22;10330;48.816;9.278;2022-10-16T12:20:57;31.00;99.90
20345;DHT22;10330;48.816;9.278;2022-10-16T12:23:47;31.20;99.90
20345;DHT22;10330;48.816;9.278;2022-10-16T12:34:35;29.30;99.90
20345;DHT22;10330;48.816;9.278;2022-10-16T12:39:56;28.80;99.90
20345;DHT22;10330;48.816;9.278;2022-10-16T13:55:39;27.30;99.90
20345;DHT22;10330;48.816;9.278;2022-10-16T13:58:12;27.30;99.90
20345;DHT22;10330;48.816;9.278;2022-10-16T14:00:39;27.50;99.90
20345;DHT22;10330;48.816;9.278;2022-10-16T14:03:16;27.80;99.90
20345;DHT22;10330;48.816;9.278;2022-10-16T14:05:48;28.40;99.90
20345;DHT22;10330;48.816;9.278;2022-10-16T14:08:15;28.30;99.90
20345;DHT22;10330;48.816;9.278;2022-10-16T14:10:41;28.20;99.90
20345;DHT22;10330;48.816;9.278;2022-10-16T14:13:16;27.90;99.90
20345;DHT22;10330;48.816;9.278;2022-10-16T14:15:47;27.60;99.90
20345;DHT22;10330;48.816;9.278;2022-10-16T14:18:20;27.30;99.90
20345;DHT22;10330;48.816;9.278;2022-10-16T14:20:51;27.10;99.90
20345;DHT22;10330;48.816;9.278;2022-10-16T14:23:44;26.80;99.90
20345;DHT22;10330;48.816;9.278;2022-10-16T14:28:40;26.30;99.90
20345;DHT22;10330;48.816;9.278;2022-10-16T14:33:45;25.80;99.90
20345;DHT22;10330;48.816;9.278;2022-10-16T14:36:14;25.60;99.90
20345;DHT22;10330;48.816;9.278;2022-10-16T14:41:23;25.30;99.90
20345;DHT22;10330;48.816;9.278;2022-10-16T14:43:54;25.10;99.90
20345;DHT22;10330;48.816;9.278;2022-10-16T14:46:28;25.00;99.90
20345;DHT22;10330;48.816;9.278;2022-10-16T14:49:18;24.90;99.90
20345;DHT22;10330;48.816;9.278;2022-10-16T14:51:46;24.80;99.90
20345;DHT22;10330;48.816;9.278;2022-10-16T14:54:14;24.60;99.90
20345;DHT22;10330;48.816;9.278;2022-10-16T14:56:50;24.60;99.90
20345;DHT22;10330;48.816;9.278;2022-10-16T14:59:41;24.60;99.90
20345;DHT22;10330;48.816;9.278;2022-10-16T15:02:32;24.60;99.90
20345;DHT22;10330;48.816;9.278;2022-10-16T15:07:41;24.60;99.90
20345;DHT22;10330;48.816;9.278;2022-10-16T15:10:08;24.50;99.90
20345;DHT22;10330;48.816;9.278;2022-10-16T15:12:34;24.50;99.90
20345;DHT22;10330;48.816;9.278;2022-10-16T15:15:00;24.50;99.90
20345;DHT22;10330;48.816;9.278;2022-10-16T15:17:27;24.40;99.90
20345;DHT22;10330;48.816;9.278;2022-10-16T15:26:52;24.30;99.90
20345;DHT22;10330;48.816;9.278;2022-10-16T15:29:34;24.30;99.90
20345;DHT22;10330;48.816;9.278;2022-10-16T15:32:03;24.20;99.90
20345;DHT22;10330;48.816;9.278;2022-10-16T15:34:29;24.10;99.90
20345;DHT22;10330;48.816;9.278;2022-10-16T15:36:55;24.00;99.90
20345;DHT22;10330;48.816;9.278;2022-10-16T15:39:23;24.00;99.90
20345;DHT22;10330;48.816;9.278;2022-10-16T15:41:50;23.90;99.90
20345;DHT22;10330;48.816;9.278;2022-10-16T15:44:17;23.80;99.90
20345;DHT22;10330;48.816;9.278;2022-10-16T15:46:43;23.70;99.90
20345;DHT22;10330;48.816;9.278;2022-10-16T15:49:11;23.60;99.90
20345;DHT22;10330;48.816;9.278;2022-10-16T15:51:39;23.50;99.90
20345;DHT22;10330;48.816;9.278;2022-10-16T15:54:05;23.40;99.90
20345;DHT22;10330;48.816;9.278;2022-10-16T15:56:32;23.30;99.90
20345;DHT22;10330;48.816;9.278;2022-10-16T15:59:04;23.20;99.90
20345;DHT22;10330;48.816;9.278;2022-10-16T16:01:33;23.10;99.90
20345;DHT22;10330;48.816;9.278;2022-10-16T16:04:00;23.00;99.90
20345;DHT22;10330;48.816;9.278;2022-10-16T16:06:27;22.90;99.90
20345;DHT22;10330;48.816;9.278;2022-10-16T16:08:53;22.90;99.90
20345;DHT22;10330;48.816;9.278;2022-10-16T16:11:20;22.80;99.90
20345;DHT22;10330;48.816;9.278;2022-10-16T16:13:46;22.70;99.90
20345;DHT22;10330;48.816;9.278;2022-10-16T16:16:18;22.60;99.90
20345;DHT22;10330;48.816;9.278;2022-10-16T16:18:50;22.50;99.90
20345;DHT22;10330;48.816;9.278;2022-10-16T16:21:18;22.40;99.90
20345;DHT22;10330;48.816;9.278;2022-10-16T16:23:44;22.30;99.90
20345;DHT22;10330;48.816;9.278;2022-10-16T16:26:29;22.10;99.90
20345;DHT22;10330;48.816;9.278;2022-10-16T16:29:05;21.90;99.90
20345;DHT22;10330;48.816;9.278;2022-10-16T16:31:34;21.90;99.90
20345;DHT22;10330;48.816;9.278;2022-10-16T16:34:03;21.70;99.90
20345;DHT22;10330;48.816;9.278;2022-10-16T16:36:32;21.60;99.90
20345;DHT22;10330;48.816;9.278;2022-10-16T16:38:59;21.50;99.90
20345;DHT22;10330;48.816;9.278;2022-10-16T16:41:27;21.50;99.90
20345;DHT22;10330;48.816;9.278;2022-10-16T16:43:54;21.30;99.90
20345;DHT22;10330;48.816;9.278;2022-10-16T16:51:54;21.10;99.90
20345;DHT22;10330;48.816;9.278;2022-10-16T16:54:20;21.00;99.90
20345;DHT22;10330;48.816;9.278;2022-10-16T16:56:46;20.90;99.90
20345;DHT22;10330;48.816;9.278;2022-10-16T16:59:18;20.90;99.90
20345;DHT22;10330;48.816;9.278;2022-10-16T17:01:46;20.80;99.90
20345;DHT22;10330;48.816;9.278;2022-10-16T17:09:32;20.70;99.90
20345;DHT22;10330;48.816;9.278;2022-10-16T17:11:59;20.60;99.90
20345;DHT22;10330;48.816;9.278;2022-10-16T17:14:25;20.60;99.90
20345;DHT22;10330;48.816;9.278;2022-10-16T17:16:52;20.50;99.90
20345;DHT22;10330;48.816;9.278;2022-10-16T17:19:19;20.50;99.90
20345;DHT22;10330;48.816;9.278;2022-10-16T17:21:48;20.50;99.90
20345;DHT22;10330;48.816;9.278;2022-10-16T17:24:15;20.40;99.90
20345;DHT22;10330;48.816;9.278;2022-10-16T17:32:11;20.40;99.90
20345;DHT22;10330;48.816;9.278;2022-10-16T17:34:37;20.30;99.90
20345;DHT22;10330;48.816;9.278;2022-10-16T17:37:03;20.30;99.90
20345;DHT22;10330;48.816;9.278;2022-10-16T17:39:29;20.30;99.90
20345;DHT22;10330;48.816;9.278;2022-10-16T17:41:55;20.20;99.90
20345;DHT22;10330;48.816;9.278;2022-10-16T17:44:22;20.20;99.90
20345;DHT22;10330;48.816;9.278;2022-10-16T17:46:52;20.10;99.90
20345;DHT22;10330;48.816;9.278;2022-10-16T17:49:20;20.00;99.90
20345;DHT22;10330;48.816;9.278;2022-10-16T17:51:50;20.00;99.90
20345;DHT22;10330;48.816;9.278;2022-10-16T17:54:16;19.90;99.90
20345;DHT22;10330;48.816;9.278;2022-10-16T17:56:42;19.70;99.90
20345;DHT22;10330;48.816;9.278;2022-10-16T17:59:10;19.70;99.90
20345;DHT22;10330;48.816;9.278;2022-10-16T18:01:38;19.70;99.90
20345;DHT22;10330;48.816;9.278;2022-10-16T18:04:11;19.60;99.90
20345;DHT22;10330;48.816;9.278;2022-10-16T18:06:39;19.60;99.90
20345;DHT22;10330;48.816;9.278;2022-10-16T18:09:07;19.50;99.90
20345;DHT22;10330;48.816;9.278;2022-10-16T18:11:34;19.40;99.90
20345;DHT22;10330;48.816;9.278;2022-10-16T18:14:01;19.30;99.90
20345;DHT22;10330;48.816;9.278;2022-10-16T18:16:28;19.30;99.90
20345;DHT22;10330;48.816;9.278;2022-10-16T18:18:58;19.20;99.90
20345;DHT22;10330;48.816;9.278;2022-10-16T18:21:28;19.20;99.90
20345;DHT22;10330;48.816;9.278;2022-10-16T18:23:57;19.10;99.90
20345;DHT22;10330;48.816;9.278;2022-10-16T18:26:24;19.10;99.90
20345;DHT22;10330;48.816;9.278;2022-10-16T18:28:52;19.00;99.90
20345;DHT22;10330;48.816;9.278;2022-10-16T18:31:20;19.00;99.90
20345;DHT22;10330;48.816;9.278;2022-10-16T18:33:46;18.90;99.90
20345;DHT22;10330;48.816;9.278;2022-10-16T18:36:17;18.90;99.90
20345;DHT22;10330;48.816;9.278;2022-10-16T18:38:44;18.90;99.90
20345;DHT22;10330;48.816;9.278;2022-10-16T18:41:10;18.80;99.90
20345;DHT22;10330;48.816;9.278;2022-10-16T18:43:37;18.70;99.90
20345;DHT22;10330;48.816;9.278;2022-10-16T18:46:21;18.70;99.90
20345;DHT22;10330;48.816;9.278;2022-10-16T18:48:48;18.70;99.90
20345;DHT22;10330;48.816;9.278;2022-10-16T18:51:19;18.70;99.90
20345;DHT22;10330;48.816;9.278;2022-10-16T18:53:48;18.60;99.90
20345;DHT22;10330;48.816;9.278;2022-10-16T18:56:16;18.60;99.90
20345;DHT22;10330;48.816;9.278;2022-10-16T18:58:44;18.60;99.90
20345;DHT22;10330;48.816;9.278;2022-10-16T19:01:12;18.50;99.90
20345;DHT22;10330;48.816;9.278;2022-10-16T19:03:41;18.50;99.90
20345;DHT22;10330;48.816;9.278;2022-10-16T19:06:10;18.50;99.90
20345;DHT22;10330;48.816;9.278;2022-10-16T19:08:37;18.50;99.90
20345;DHT22;10330;48.816;9.278;2022-10-16T19:11:08;18.40;99.90
20345;DHT22;10330;48.816;9.278;2022-10-16T19:13:35;18.40;99.90
20345;DHT22;10330;48.816;9.278;2022-10-16T19:16:02;18.30;99.90
20345;DHT22;10330;48.816;9.278;2022-10-16T19:18:30;18.30;99.90
20345;DHT22;10330;48.816;9.278;2022-10-16T19:21:04;18.30;99.90
20345;DHT22;10330;48.816;9.278;2022-10-16T19:23:31;18.30;99.90
20345;DHT22;10330;48.816;9.278;2022-10-16T19:28:59;18.20;99.90
20345;DHT22;10330;48.816;9.278;2022-10-16T19:31:27;18.20;99.90
20345;DHT22;10330;48.816;9.278;2022-10-16T19:33:56;18.20;99.90
20345;DHT22;10330;48.816;9.278;2022-10-16T19:39:24;18.00;99.90
20345;DHT22;10330;48.816;9.278;2022-10-16T19:41:50;18.00;99.90
20345;DHT22;10330;48.816;9.278;2022-10-16T19:44:17;17.90;99.90
20345;DHT22;10330;48.816;9.278;2022-10-16T19:46:55;17.80;99.90
20345;DHT22;10330;48.816;9.278;2022-10-16T19:49:21;17.80;99.90
20345;DHT22;10330;48.816;9.278;2022-10-16T19:55:48;17.70;99.90
20345;DHT22;10330;48.816;9.278;2022-10-16T19:58:20;17.60;99.90
20345;DHT22;10330;48.816;9.278;2022-10-16T20:00:46;17.60;99.90
20345;DHT22;10330;48.816;9.278;2022-10-16T20:03:38;17.50;99.90
20345;DHT22;10330;48.816;9.278;2022-10-16T20:06:07;17.50;99.90
20345;DHT22;10330;48.816;9.278;2022-10-16T20:08:35;17.50;99.90
20345;DHT22;10330;48.816;9.278;2022-10-16T20:11:02;17.50;99.90
20345;DHT22;10330;48.816;9.278;2022-10-16T20:13:30;17.40;99.90
20345;DHT22;10330;48.816;9.278;2022-10-16T20:25:37;17.30;99.90
20345;DHT22;10330;48.816;9.278;2022-10-16T20:28:19;17.20;99.90
20345;DHT22;10330;48.816;9.278;2022-10-16T20:30:56;17.20;99.90
20345;DHT22;10330;48.816;9.278;2022-10-16T20:33:52;17.20;99.90
20345;DHT22;10330;48.816;9.278;2022-10-16T20:37:03;17.10;99.90
20345;DHT22;10330;48.816;9.278;2022-10-16T20:39:29;17.10;99.90
20345;DHT22;10330;48.816;9.278;2022-10-16T20:41:56;17.00;99.90
20345;DHT22;10330;48.816;9.278;2022-10-16T20:44:25;17.00;99.90
20345;DHT22;10330;48.816;9.278;2022-10-16T20:58:10;16.90;99.90
20345;DHT22;10330;48.816;9.278;2022-10-16T21:04:20;16.70;99.90
20345;DHT22;10330;48.816;9.278;2022-10-16T21:06:46;16.60;99.90
20345;DHT22;10330;48.816;9.278;2022-10-16T21:09:54;16.60;99.90
20345;DHT22;10330;48.816;9.278;2022-10-16T21:12:24;16.50;99.90
20345;DHT22;10330;48.816;9.278;2022-10-16T21:18:04;16.50;99.90
20345;DHT22;10330;48.816;9.278;2022-10-16T21:40:19;16.30;99.90
20345;DHT22;10330;48.816;9.278;2022-10-16T21:43:10;16.10;99.90
20345;DHT22;10330;48.816;9.278;2022-10-16T21:49:32;16.10;99.90
20345;DHT22;10330;48.816;9.278;2022-10-16T21:52:01;16.00;99.90
20345;DHT22;10330;48.816;9.278;2022-10-16T21:54:32;16.00;99.90
20345;DHT22;10330;48.816;9.278;2022-10-16T21:57:01;15.90;99.90
20345;DHT22;10330;48.816;9.278;2022-10-16T21:59:48;16.00;99.90